Marsum, Netherlands
Current Conditions -  °F | °C
As of 2:55 PM on Wednesday 22 Oct 2014 (Local Time) from EHLW Reporting Station
Overcast Overcast  
Wind Chill: 54°   Ceiling: 4600
Heat Index: 54°   Visibility: 6mi
Dew Point: 43°   Wind: 20mph
Humidity: 67%   Direction: 340°NNW
Pressure: 30"   Gusts: NA
Location:  53.21°N, 5.73°E
Report Text: EHLW 221255Z AUTO 34017KT 9999 FEW036 BKN046 OVC051 12/06 Q1016 BLU 32020G35KT 9999 FEW022CB BKN040 TEMPO 33025G38KT 5000 SHRA SCT022CB BKN030
Loading
Personal Weather Stations






























Interactive Weather Map
Tropical Storm Tracking
New forecast layout! Learn more

10-Day Weather Forecast

Advertisements
Track Severe Weather on mobile